LKPR/PRG METAR and TAF weather

Enter ICAO airport designator
Station Type Date Time Source
LKPR METAR 2020/09/18 16:30 UTC NOAA

LKPR 181630Z 06006KT CAVOK 16/02 Q1026 NOSIG


Station Type Date Time Source
LKPR Decoded METAR 2020/09/18 16:30 UTC NOAA

Praha / Ruzyne, Czech Republic (LKPR) 50-06N 014-15E 365M
Sep 18, 2020 - 12:30 PM EDT / 2020.09.18 1630 UTC
Wind: from the ENE (060 degrees) at 7 MPH (6 KT):0
Visibility: greater than 7 mile(s):0
Temperature: 60 F (16 C)
Dew Point: 35 F (2 C)
Relative Humidity: 38%
Pressure (altimeter): 30.30 in. Hg (1026 hPa)
ob: LKPR 181630Z 06006KT CAVOK 16/02 Q1026 NOSIG
cycle: 16

Station Type Date Time Source
LKPR TAF 2020/09/18 12:07 UTC NOAA

TAF LKPR 181100Z 1812/1918 07008KT CAVOK

Example: see airport list